Time;durP1;ratioP1;P1;durP2;ratioP2;P2;SDS_P1;SDS_P2;PMS_P1;PMS_P2;Temp;Humidity;BMP_temperature;BMP_pressure;BME280_temperature;BME280_humidity;BME280_pressure;Samples;Min_cycle;Max_cycle;Signal;HPM_P1;HPM_P2
2022/06/21 00:00:41;;;;;;;9.32;6.22;;;22.60;97.80;;;;;;5033778;28;20045;-78
2022/06/21 00:03:28;;;;;;;10.32;6.55;;;22.70;98.70;;;;;;5034259;28;20056;-78
2022/06/21 00:06:18;;;;;;;13.80;7.00;;;22.60;99.10;;;;;;5033746;28;20060;-77
2022/06/21 00:09:04;;;;;;;15.65;6.90;;;22.70;99.80;;;;;;5031289;28;20386;-78
2022/06/21 00:11:50;;;;;;;13.20;6.85;;;22.70;99.90;;;;;;5033159;28;20131;-78
2022/06/21 00:14:36;;;;;;;10.73;6.60;;;22.50;99.90;;;;;;5027613;28;20160;-78
2022/06/21 00:17:22;;;;;;;11.10;7.22;;;22.50;99.90;;;;;;5033495;28;20134;-78
2022/06/21 00:20:18;;;;;;;9.88;6.78;;;22.60;99.90;;;;;;5018481;28;20179;-78
2022/06/21 00:23:03;;;;;;;14.43;6.57;;;22.50;99.90;;;;;;5030128;28;20131;-76
2022/06/21 00:25:50;;;;;;;13.70;7.05;;;22.40;99.90;;;;;;5030095;28;20048;-77
2022/06/21 00:28:36;;;;;;;12.32;6.57;;;22.30;99.90;;;;;;5022158;28;20095;-78
2022/06/21 00:31:31;;;;;;;12.77;6.45;;;22.30;99.90;;;;;;5019497;28;20055;-78
2022/06/21 00:34:20;;;;;;;10.30;7.30;;;22.40;99.90;;;;;;5023125;28;20057;-77
2022/06/21 00:37:13;;;;;;;13.07;6.85;;;22.40;99.90;;;;;;5033851;28;20041;-77
2022/06/21 00:39:59;;;;;;;9.30;7.30;;;22.30;99.90;;;;;;5033400;28;20048;-78
2022/06/21 00:42:48;;;;;;;11.13;6.82;;;22.10;99.90;;;;;;5018666;28;20048;-78
2022/06/21 00:45:37;;;;;;;13.82;7.55;;;22.10;99.90;;;;;;5031837;28;20354;-77
2022/06/21 00:48:27;;;;;;;202.25;127.78;;;22.10;99.90;;;;;;5024351;28;20048;-77
2022/06/21 00:51:18;;;;;;;243.82;150.15;;;22.10;99.90;;;;;;5033245;28;20048;-77
2022/06/21 00:54:13;;;;;;;;;;;22.20;99.90;;;;;;5014220;28;20108;-78
2022/06/21 00:57:04;;;;;;;20.50;13.52;;;22.00;99.90;;;;;;5030950;28;20029;-77
2022/06/21 00:59:50;;;;;;;16.77;8.98;;;21.90;99.90;;;;;;5024218;28;20603;-78
2022/06/21 01:02:36;;;;;;;14.65;9.77;;;22.10;99.90;;;;;;5033271;28;20071;-77
2022/06/21 01:05:25;;;;;;;12.30;8.82;;;22.10;99.90;;;;;;5032575;28;20052;-78
2022/06/21 01:08:17;;;;;;;11.32;7.35;;;22.10;99.90;;;;;;5032048;28;20064;-78
2022/06/21 01:11:10;;;;;;;12.90;8.43;;;21.90;99.90;;;;;;5016510;28;20107;-78
2022/06/21 01:13:59;;;;;;;10.77;7.88;;;21.90;99.90;;;;;;5029583;28;20052;-79
2022/06/21 01:16:45;;;;;;;13.20;8.55;;;21.90;99.90;;;;;;5032580;28;20558;-79
2022/06/21 01:19:42;;;;;;;12.85;8.35;;;21.80;99.90;;;;;;5030108;28;20123;-79
2022/06/21 01:22:31;;;;;;;9.90;6.90;;;21.80;99.90;;;;;;5025213;28;20048;-77
2022/06/21 01:25:35;;;;;;;11.93;7.77;;;21.70;99.90;;;;;;5032774;28;20140;-78
2022/06/21 01:28:21;;;;;;;9.95;6.57;;;21.70;99.90;;;;;;5031670;28;20052;-78
2022/06/21 01:31:08;;;;;;;12.98;7.25;;;21.60;99.90;;;;;;5026455;28;20043;-78
2022/06/21 01:33:54;;;;;;;9.23;6.70;;;21.40;99.90;;;;;;5028034;28;20126;-79
2022/06/21 01:36:40;;;;;;;8.40;6.15;;;21.40;99.90;;;;;;5026789;28;20060;-78
2022/06/21 01:39:46;;;;;;;11.10;7.25;;;21.30;99.90;;;;;;5027444;28;20401;-78
2022/06/21 01:42:37;;;;;;;10.50;6.40;;;21.60;99.90;;;;;;5028926;28;20171;-78
2022/06/21 01:45:34;;;;;;;10.48;6.57;;;21.50;99.90;;;;;;5031470;28;20393;-78
2022/06/21 01:48:52;;;;;;;13.75;6.35;;;21.60;99.90;;;;;;5032040;28;20717;-78
2022/06/21 01:51:47;;;;;;;12.27;6.80;;;21.50;99.90;;;;;;5025734;28;20068;-78
2022/06/21 01:54:38;;;;;;;8.93;6.75;;;21.30;99.90;;;;;;5031996;28;20053;-78
2022/06/21 01:57:25;;;;;;;13.77;5.90;;;21.30;99.90;;;;;;5031765;28;20040;-76
2022/06/21 02:00:12;;;;;;;8.63;6.43;;;21.20;99.90;;;;;;5032113;28;20052;-77
2022/06/21 02:03:05;;;;;;;12.07;6.72;;;21.20;99.90;;;;;;5031961;28;20052;-77
2022/06/21 02:05:55;;;;;;;11.77;6.60;;;21.40;99.90;;;;;;5031482;28;20073;-79
2022/06/21 02:08:47;;;;;;;11.88;7.22;;;21.30;99.90;;;;;;5031689;28;20095;-79
2022/06/21 02:11:38;;;;;;;14.20;6.88;;;21.40;99.90;;;;;;5031192;28;20508;-79
2022/06/21 02:14:30;;;;;;;12.05;6.95;;;21.40;99.90;;;;;;5032057;28;20041;-78
2022/06/21 02:17:23;;;;;;;11.43;6.80;;;21.50;99.90;;;;;;5030892;28;20049;-78
2022/06/21 02:20:12;;;;;;;12.50;6.60;;;21.40;99.90;;;;;;5012238;28;20509;-78
2022/06/21 02:22:59;;;;;;;11.25;6.72;;;21.40;99.90;;;;;;5030680;28;20104;-78
2022/06/21 02:25:45;;;;;;;10.23;7.00;;;21.30;99.90;;;;;;5026413;28;20507;-78
2022/06/21 02:28:32;;;;;;;10.75;6.40;;;21.20;99.90;;;;;;5031489;28;20172;-78
2022/06/21 02:31:19;;;;;;;12.65;6.72;;;21.20;99.90;;;;;;5019013;28;20111;-77
2022/06/21 02:34:15;;;;;;;9.90;6.43;;;21.10;99.90;;;;;;5031209;28;20119;-78
2022/06/21 02:37:02;;;;;;;9.98;6.68;;;21.10;99.90;;;;;;5031433;28;20044;-78
2022/06/21 02:39:48;;;;;;;10.07;6.43;;;21.10;99.90;;;;;;5030597;28;20044;-77
2022/06/21 02:42:39;;;;;;;9.93;6.25;;;21.20;99.90;;;;;;5031520;28;20512;-77
2022/06/21 02:45:35;;;;;;;11.13;6.35;;;21.00;99.90;;;;;;5030758;28;20126;-78
2022/06/21 02:48:40;;;;;;;10.38;6.43;;;20.60;99.90;;;;;;5019357;28;20056;-78
2022/06/21 02:51:31;;;;;;;11.00;6.18;;;20.70;99.90;;;;;;5019167;28;20040;-78
2022/06/21 02:54:25;;;;;;;9.15;5.63;;;20.80;99.90;;;;;;5031409;28;20053;-78
2022/06/21 02:57:40;;;;;;;10.30;5.82;;;20.70;99.90;;;;;;5024312;28;20059;-78
2022/06/21 03:00:27;;;;;;;12.27;6.45;;;20.80;99.90;;;;;;5031564;28;20128;-78
2022/06/21 03:03:20;;;;;;;10.18;5.55;;;20.70;99.90;;;;;;5018330;28;20882;-78
2022/06/21 03:06:10;;;;;;;8.57;5.78;;;20.50;99.90;;;;;;5029324;28;20408;-77
2022/06/21 03:09:10;;;;;;;8.05;5.60;;;20.70;99.90;;;;;;5012956;28;20048;-78
2022/06/21 03:12:01;;;;;;;12.95;7.65;;;20.90;99.90;;;;;;5030634;28;20112;-78
2022/06/21 03:14:49;;;;;;;9.30;5.78;;;20.80;99.90;;;;;;5027798;28;20052;-78
2022/06/21 03:17:47;;;;;;;10.95;5.72;;;20.70;99.90;;;;;;5031147;28;20040;-79
2022/06/21 03:20:34;;;;;;;8.10;5.65;;;20.80;99.90;;;;;;5037323;28;20103;-79
2022/06/21 03:23:21;;;;;;;9.82;6.40;;;20.60;99.90;;;;;;5029844;28;20452;-78
2022/06/21 03:26:09;;;;;;;8.65;6.13;;;20.60;99.90;;;;;;5030506;28;20408;-78
2022/06/21 03:28:55;;;;;;;8.73;6.03;;;20.70;99.90;;;;;;5016752;28;20048;-78
2022/06/21 03:31:48;;;;;;;9.55;6.20;;;20.80;99.90;;;;;;5031572;28;20048;-79
2022/06/21 03:34:35;;;;;;;10.27;6.13;;;20.90;99.90;;;;;;5024632;28;20056;-79
2022/06/21 03:37:21;;;;;;;13.40;6.00;;;21.00;99.90;;;;;;5030888;28;20052;-79
2022/06/21 03:43:30;;;;;;;9.85;6.22;;;20.90;99.90;;;;;;5011305;28;20045;-78
2022/06/21 03:46:26;;;;;;;10.00;5.60;;;21.00;99.90;;;;;;5008573;28;20065;-77
2022/06/21 03:49:35;;;;;;;9.80;6.10;;;21.00;99.90;;;;;;5026447;28;20048;-78
2022/06/21 03:52:42;;;;;;;10.02;6.40;;;21.10;99.90;;;;;;5030171;28;20111;-79
2022/06/21 03:55:41;;;;;;;11.23;6.07;;;21.00;99.90;;;;;;5030944;28;20107;-78
2022/06/21 03:59:02;;;;;;;10.75;6.15;;;20.60;99.90;;;;;;5042739;28;20707;-78
2022/06/21 04:02:25;;;;;;;10.02;6.47;;;20.60;99.90;;;;;;5024857;28;20416;-77
2022/06/21 04:05:23;;;;;;;16.13;5.97;;;20.80;99.90;;;;;;5011562;28;20147;-78
2022/06/21 04:08:19;;;;;;;9.52;5.70;;;20.80;99.90;;;;;;5029856;28;20127;-78
2022/06/21 04:11:17;;;;;;;8.93;5.90;;;20.80;99.90;;;;;;5033129;28;20048;-78
2022/06/21 04:14:57;;;;;;;13.38;5.95;;;20.90;99.90;;;;;;5033667;28;20051;-78
2022/06/21 04:17:48;;;;;;;11.10;6.63;;;20.80;99.90;;;;;;4973151;28;20089;-78
2022/06/21 04:20:39;;;;;;;10.07;6.47;;;20.80;99.90;;;;;;5034408;28;20405;-78
2022/06/21 04:23:35;;;;;;;9.50;6.25;;;20.90;99.90;;;;;;5033322;28;20040;-78
2022/06/21 04:26:35;;;;;;;8.48;6.60;;;21.00;99.90;;;;;;5034040;28;20188;-80
2022/06/21 04:29:32;;;;;;;12.07;6.53;;;21.10;99.90;;;;;;5031439;28;20061;-78
2022/06/21 04:32:29;;;;;;;11.60;6.38;;;21.40;99.90;;;;;;5033524;28;20139;-78
2022/06/21 04:35:28;;;;;;;8.75;5.18;;;21.40;99.90;;;;;;5043052;28;20096;-78
2022/06/21 04:38:37;;;;;;;8.48;5.60;;;21.20;99.90;;;;;;5033215;28;20408;-77
2022/06/21 04:41:47;;;;;;;14.15;7.55;;;21.20;99.90;;;;;;5033016;28;20079;-78
2022/06/21 04:44:41;;;;;;;10.15;6.43;;;21.40;99.90;;;;;;5028633;28;20040;-78
2022/06/21 04:47:31;;;;;;;8.32;5.03;;;21.40;99.90;;;;;;5033135;28;20064;-77
2022/06/21 04:50:32;;;;;;;9.63;5.45;;;21.40;99.90;;;;;;5013759;28;20049;-76
2022/06/21 04:53:32;;;;;;;9.00;5.28;;;21.20;99.90;;;;;;5031900;28;20053;-76
2022/06/21 04:56:18;;;;;;;;;;;21.40;99.90;;;;;;5018930;28;20168;-77
2022/06/21 04:59:29;;;;;;;9.93;5.40;;;21.60;99.90;;;;;;5033102;28;20265;-78
2022/06/21 05:02:26;;;;;;;8.20;5.13;;;21.60;99.90;;;;;;5032381;28;20600;-78
2022/06/21 05:05:18;;;;;;;11.25;5.50;;;21.60;99.90;;;;;;5033522;28;20056;-79
2022/06/21 05:08:23;;;;;;;9.68;5.60;;;21.60;99.90;;;;;;5032317;28;20401;-77
2022/06/21 05:11:11;;;;;;;9.25;5.20;;;21.50;99.90;;;;;;5033268;28;20048;-78
2022/06/21 05:13:59;;;;;;;7.63;5.20;;;21.60;99.90;;;;;;5032436;28;20047;-77
2022/06/21 05:16:45;;;;;;;10.10;5.05;;;21.60;99.90;;;;;;5025778;28;20040;-78
2022/06/21 05:19:35;;;;;;;8.73;5.07;;;21.60;99.90;;;;;;5032030;28;20064;-78
2022/06/21 05:22:28;;;;;;;9.95;5.72;;;21.60;99.90;;;;;;5035111;28;20047;-77
2022/06/21 05:25:35;;;;;;;10.35;5.85;;;21.60;99.90;;;;;;5026162;28;20575;-78
2022/06/21 05:28:49;;;;;;;10.68;5.40;;;21.70;99.90;;;;;;5032839;28;20057;-79
2022/06/21 05:31:43;;;;;;;8.80;5.18;;;21.90;99.90;;;;;;5031911;28;20045;-79
2022/06/21 05:34:34;;;;;;;8.25;5.15;;;22.00;99.90;;;;;;5024376;28;20080;-81
2022/06/21 05:37:30;;;;;;;9.68;5.45;;;22.00;99.90;;;;;;5031617;28;20055;-81
2022/06/21 05:40:36;;;;;;;9.43;6.03;;;22.00;99.90;;;;;;5031469;28;20094;-78
2022/06/21 05:43:36;;;;;;;8.38;5.45;;;22.10;99.90;;;;;;5026536;28;20080;-80
2022/06/21 05:46:25;;;;;;;8.95;5.95;;;22.00;99.90;;;;;;5031784;28;20065;-80
2022/06/21 05:49:25;;;;;;;12.18;5.88;;;22.20;99.90;;;;;;5032084;28;20099;-80
2022/06/21 05:52:15;;;;;;;;;;;22.30;99.90;;;;;;5030857;28;20180;-81
2022/06/21 05:55:13;;;;;;;9.23;5.65;;;22.50;99.90;;;;;;5012957;28;19928;-79
2022/06/21 05:58:08;;;;;;;9.27;5.60;;;22.40;99.90;;;;;;5019695;28;20053;-80
2022/06/21 06:01:13;;;;;;;10.35;6.25;;;22.30;99.90;;;;;;5032854;28;20099;-79
2022/06/21 06:04:06;;;;;;;10.38;5.40;;;22.30;99.90;;;;;;5025370;28;20052;-78
2022/06/21 06:06:55;;;;;;;8.73;5.90;;;22.40;99.90;;;;;;5031954;28;20048;-77
2022/06/21 06:09:45;;;;;;;9.70;6.43;;;22.50;99.90;;;;;;5031527;28;20057;-78
2022/06/21 06:12:35;;;;;;;8.65;6.18;;;22.50;99.90;;;;;;5031982;28;20064;-78
2022/06/21 06:15:31;;;;;;;11.38;6.07;;;22.60;99.90;;;;;;5031203;28;20184;-79
2022/06/21 06:18:40;;;;;;;15.60;10.57;;;22.50;99.90;;;;;;5032075;28;20604;-78
2022/06/21 06:21:33;;;;;;;12.43;8.05;;;22.60;99.90;;;;;;5037010;28;20131;-79
2022/06/21 06:24:29;;;;;;;13.32;5.85;;;22.70;99.90;;;;;;5031379;28;20041;-78
2022/06/21 06:27:56;;;;;;;10.38;6.47;;;22.80;99.90;;;;;;5030836;28;20056;-78
2022/06/21 06:30:48;;;;;;;15.02;6.47;;;22.80;99.90;;;;;;5031121;28;20051;-79
2022/06/21 06:33:41;;;;;;;13.07;7.13;;;23.00;99.90;;;;;;5031759;28;20508;-78
2022/06/21 06:36:48;;;;;;;10.25;6.03;;;22.90;99.90;;;;;;5031812;28;20040;-78
2022/06/21 06:39:36;;;;;;;11.50;6.93;;;23.00;99.90;;;;;;5031839;28;20044;-78
2022/06/21 06:42:26;;;;;;;10.80;5.90;;;23.10;99.90;;;;;;5031656;28;20049;-78
2022/06/21 06:45:17;;;;;;;11.75;6.13;;;23.20;99.90;;;;;;5032171;28;20123;-78
2022/06/21 06:48:12;;;;;;;14.23;6.57;;;23.40;99.90;;;;;;5016496;28;20184;-77
2022/06/21 06:51:16;;;;;;;13.45;6.00;;;23.50;99.90;;;;;;5017002;28;20060;-79
2022/06/21 06:54:03;;;;;;;17.83;7.38;;;23.60;99.90;;;;;;5031694;28;20052;-78
2022/06/21 06:57:02;;;;;;;12.45;5.97;;;23.70;99.90;;;;;;5031711;28;20102;-79
2022/06/21 06:59:48;;;;;;;12.68;6.78;;;23.70;99.90;;;;;;5016767;28;20053;-78
2022/06/21 07:02:38;;;;;;;11.93;7.05;;;23.70;99.90;;;;;;5017084;28;20048;-79
2022/06/21 07:05:29;;;;;;;14.82;6.03;;;23.80;99.90;;;;;;5031634;28;20503;-79
2022/06/21 07:08:50;;;;;;;10.25;6.15;;;23.90;99.90;;;;;;5031911;28;20053;-79
2022/06/21 07:11:52;;;;;;;15.57;6.22;;;24.10;99.90;;;;;;5007503;28;20596;-78
2022/06/21 07:14:38;;;;;;;10.93;6.57;;;24.00;99.90;;;;;;5031667;28;20049;-79
2022/06/21 07:17:41;;;;;;;10.48;6.20;;;24.00;99.90;;;;;;5031233;28;20108;-78
2022/06/21 07:20:41;;;;;;;16.65;6.68;;;24.10;99.90;;;;;;5017608;28;20052;-77
2022/06/21 07:23:28;;;;;;;10.73;5.88;;;24.20;99.90;;;;;;5031322;28;20390;-77
2022/06/21 07:26:27;;;;;;;15.23;6.80;;;24.30;99.90;;;;;;5031128;28;20087;-78
2022/06/21 07:29:24;;;;;;;11.18;6.75;;;24.20;99.50;;;;;;5031263;28;20111;-77
2022/06/21 07:32:24;;;;;;;12.02;6.78;;;24.30;99.60;;;;;;5016902;28;20044;-77
2022/06/21 07:35:27;;;;;;;12.40;5.72;;;24.30;99.20;;;;;;5031611;28;20082;-79
2022/06/21 07:38:37;;;;;;;8.45;5.90;;;24.50;99.20;;;;;;5031393;28;20068;-77
2022/06/21 07:41:31;;;;;;;9.07;6.05;;;24.50;98.50;;;;;;5016710;28;20393;-75
2022/06/21 07:44:31;;;;;;;34.45;21.55;;;24.60;98.80;;;;;;5030972;28;20111;-74
2022/06/21 07:47:44;;;;;;;33.65;20.45;;;24.70;98.30;;;;;;5034965;28;20049;-74
2022/06/21 07:51:02;;;;;;;17.17;11.48;;;24.80;98.40;;;;;;5035285;28;20376;-77
2022/06/21 07:53:51;;;;;;;35.72;24.65;;;24.80;98.10;;;;;;5035033;28;20060;-75
2022/06/21 07:57:12;;;;;;;18.98;11.07;;;24.90;98.60;;;;;;5034651;28;20040;-77
2022/06/21 08:00:17;;;;;;;50.45;42.28;;;25.00;97.10;;;;;;5035104;28;20113;-76
2022/06/21 08:09:48;;;;;;;12.50;8.00;;;25.40;98.00;;;;;;5034558;28;20112;-76
2022/06/21 08:12:34;;;;;;;11.23;6.80;;;25.40;97.40;;;;;;5034453;28;20056;-75
2022/06/21 08:15:25;;;;;;;12.35;7.13;;;25.30;97.40;;;;;;5019397;28;20475;-77
2022/06/21 08:18:31;;;;;;;14.13;6.57;;;25.50;97.30;;;;;;5034788;28;20512;-75
2022/06/21 08:21:39;;;;;;;11.82;7.63;;;25.70;97.00;;;;;;5034839;28;20040;-76
2022/06/21 08:24:33;;;;;;;12.88;6.55;;;25.80;97.00;;;;;;5033856;28;20083;-76
2022/06/21 08:27:47;;;;;;;14.98;6.20;;;25.80;96.50;;;;;;5034378;28;20072;-76
2022/06/21 08:30:58;;;;;;;12.15;6.85;;;25.90;96.30;;;;;;5034176;28;20076;-76
2022/06/21 08:33:46;;;;;;;;;;;25.90;96.10;;;;;;5034461;28;20053;-75
2022/06/21 08:36:38;;;;;;;35.42;23.85;;;26.00;96.60;;;;;;5034166;28;19978;-75
2022/06/21 08:39:36;;;;;;;52.10;45.30;;;26.20;96.00;;;;;;5033861;28;20511;-74
2022/06/21 08:42:50;;;;;;;16.15;11.90;;;26.10;95.70;;;;;;5034283;28;20049;-75
2022/06/21 08:45:48;;;;;;;16.65;8.32;;;26.20;95.70;;;;;;5033679;28;20126;-76
2022/06/21 08:48:49;;;;;;;10.25;6.72;;;26.20;95.40;;;;;;5034129;28;20171;-76
2022/06/21 08:51:35;;;;;;;13.15;7.90;;;26.30;95.60;;;;;;5034210;28;20072;-74
2022/06/21 08:55:11;;;;;;;16.67;8.45;;;26.30;95.20;;;;;;5018975;28;20044;-75
2022/06/21 08:58:15;;;;;;;11.45;6.90;;;26.30;95.30;;;;;;5032219;28;20064;-74
2022/06/21 09:01:22;;;;;;;11.25;6.40;;;26.60;95.30;;;;;;5025623;28;20146;-74
2022/06/21 09:04:26;;;;;;;15.95;8.00;;;26.80;94.30;;;;;;5015729;28;20045;-75
2022/06/21 09:07:33;;;;;;;11.20;7.72;;;26.70;94.50;;;;;;5033289;28;20048;-76
2022/06/21 09:10:38;;;;;;;17.35;8.07;;;26.80;94.40;;;;;;5033080;28;20500;-79
2022/06/21 09:13:39;;;;;;;13.70;7.20;;;26.80;94.30;;;;;;5018783;28;20048;-78
2022/06/21 09:16:31;;;;;;;10.27;6.80;;;27.30;94.20;;;;;;5018099;28;20044;-79
2022/06/21 09:19:50;;;;;;;10.25;6.57;;;27.40;93.30;;;;;;5033290;28;20148;-79
2022/06/21 09:22:48;;;;;;;15.77;7.32;;;27.60;93.70;;;;;;5013190;28;20563;-79
2022/06/21 09:26:09;;;;;;;13.95;7.60;;;27.50;92.80;;;;;;5013093;28;20135;-77
2022/06/21 09:29:41;;;;;;;11.05;6.88;;;27.60;92.30;;;;;;5013332;28;20045;-79
2022/06/21 09:32:49;;;;;;;11.07;6.00;;;27.80;91.60;;;;;;4989292;28;20392;-78
2022/06/21 09:35:57;;;;;;;20.45;8.77;;;28.00;91.10;;;;;;5013094;28;20157;-78
2022/06/21 09:39:24;;;;;;;37.40;26.40;;;28.10;91.30;;;;;;5013613;28;20133;-78
2022/06/21 09:42:43;;;;;;;27.10;17.02;;;28.30;90.50;;;;;;4978891;28;20180;-80
2022/06/21 09:45:45;;;;;;;16.50;9.52;;;28.40;90.10;;;;;;5012933;28;20065;-77
2022/06/21 09:48:41;;;;;;;11.30;6.10;;;28.60;88.60;;;;;;5013117;28;20053;-78
2022/06/21 09:52:12;;;;;;;14.05;6.95;;;28.90;85.80;;;;;;5013605;28;20504;-78
2022/06/21 09:55:06;;;;;;;15.35;6.32;;;28.80;84.20;;;;;;5012654;28;20488;-79
2022/06/21 09:58:06;;;;;;;13.73;6.13;;;28.90;85.00;;;;;;5013183;28;20060;-79
2022/06/21 10:01:18;;;;;;;15.68;7.18;;;29.10;86.40;;;;;;5012737;28;20525;-78
2022/06/21 10:04:39;;;;;;;15.45;7.95;;;29.50;84.00;;;;;;5012687;28;20196;-79
2022/06/21 10:08:07;;;;;;;12.95;7.15;;;29.50;85.90;;;;;;5012022;28;20057;-77
2022/06/21 10:11:07;;;;;;;13.50;7.10;;;29.50;86.40;;;;;;4997839;28;20057;-78
2022/06/21 10:14:17;;;;;;;71.35;19.65;;;29.80;85.00;;;;;;5012704;28;20056;-78
2022/06/21 10:17:21;;;;;;;64.28;48.53;;;29.80;82.00;;;;;;5012448;28;20037;-77
2022/06/21 10:20:37;;;;;;;23.23;10.27;;;29.80;80.50;;;;;;4999758;28;20053;-78
2022/06/21 10:23:35;;;;;;;11.30;7.70;;;30.10;79.80;;;;;;5051868;28;20044;-78
2022/06/21 10:26:48;;;;;;;23.42;6.72;;;29.80;79.20;;;;;;5052211;28;20376;-85
2022/06/21 10:30:09;;;;;;;14.00;7.80;;;30.00;77.40;;;;;;5052293;28;20594;-85
2022/06/21 10:33:20;;;;;;;24.58;8.02;;;30.00;77.30;;;;;;5035750;28;20047;-82
2022/06/21 10:36:26;;;;;;;14.77;6.40;;;29.80;79.50;;;;;;5050237;28;20048;-80
2022/06/21 10:39:32;;;;;;;15.20;7.78;;;29.80;77.50;;;;;;5050350;28;20308;-78
2022/06/21 10:42:49;;;;;;;17.17;7.20;;;30.30;78.70;;;;;;5019166;28;20048;-78
2022/06/21 10:45:53;;;;;;;10.27;5.80;;;30.40;76.10;;;;;;5028963;28;20056;-79
2022/06/21 10:49:11;;;;;;;16.38;6.28;;;30.40;75.60;;;;;;5011852;28;20163;-77
2022/06/21 10:52:16;;;;;;;15.45;6.68;;;30.20;75.40;;;;;;5030672;28;20045;-78
2022/06/21 10:55:24;;;;;;;13.20;6.28;;;30.70;77.10;;;;;;5030328;28;20072;-79
2022/06/21 10:58:34;;;;;;;10.02;6.50;;;30.90;75.90;;;;;;5031221;28;20098;-77
2022/06/21 11:01:37;;;;;;;11.55;6.30;;;30.90;74.20;;;;;;5031595;28;20052;-79
2022/06/21 11:04:53;;;;;;;12.73;6.82;;;31.00;75.00;;;;;;5016774;28;20063;-76
2022/06/21 11:08:03;;;;;;;9.50;7.32;;;31.10;74.20;;;;;;5031564;28;20052;-78
2022/06/21 11:11:00;;;;;;;34.10;29.10;;;31.20;73.80;;;;;;5030388;28;20051;-79
2022/06/21 11:14:20;;;;;;;25.20;17.10;;;31.10;74.30;;;;;;5016858;28;20127;-79
2022/06/21 11:17:15;;;;;;;12.65;7.15;;;31.20;73.90;;;;;;5031449;28;20052;-80
2022/06/21 11:20:14;;;;;;;11.30;7.00;;;31.30;72.30;;;;;;5033832;28;20388;-78
2022/06/21 11:23:24;;;;;;;19.52;6.40;;;31.60;73.50;;;;;;5014703;28;20821;-83
2022/06/21 11:26:42;;;;;;;11.70;7.03;;;31.70;72.50;;;;;;5001573;28;20062;-76
2022/06/21 11:29:50;;;;;;;11.85;6.95;;;31.80;72.90;;;;;;5015810;28;20057;-82
2022/06/21 11:32:59;;;;;;;10.75;6.03;;;31.60;71.30;;;;;;5015980;28;20111;-78
2022/06/21 11:36:00;;;;;;;14.88;8.13;;;31.60;71.60;;;;;;5015438;28;20100;-78
2022/06/21 11:38:55;;;;;;;15.75;6.63;;;31.70;72.80;;;;;;5000248;28;20544;-78
2022/06/21 11:42:05;;;;;;;17.58;7.03;;;31.80;71.90;;;;;;5015587;28;20060;-78
2022/06/21 11:45:10;;;;;;;12.40;6.40;;;31.90;69.60;;;;;;5014331;28;20053;-78
2022/06/21 11:48:21;;;;;;;13.65;6.68;;;31.80;70.20;;;;;;5013265;28;20048;-79
2022/06/21 11:51:10;;;;;;;10.02;6.70;;;31.90;69.10;;;;;;5013671;28;20189;-78
2022/06/21 11:54:26;;;;;;;15.35;6.35;;;32.00;69.10;;;;;;5013443;28;20457;-78
2022/06/21 11:57:33;;;;;;;11.73;6.90;;;32.00;70.40;;;;;;5013482;28;20131;-79
2022/06/21 12:01:11;;;;;;;12.15;5.88;;;32.10;69.90;;;;;;5014543;28;20044;-79
2022/06/21 12:04:35;;;;;;;8.65;5.63;;;32.20;69.80;;;;;;4956116;28;20081;-78
2022/06/21 12:07:49;;;;;;;9.60;6.22;;;32.10;69.40;;;;;;5032815;28;20048;-78
2022/06/21 12:10:44;;;;;;;12.70;6.75;;;32.20;69.20;;;;;;5034779;28;20056;-78
2022/06/21 12:13:42;;;;;;;35.65;25.20;;;32.10;69.00;;;;;;5034538;28;20511;-77
2022/06/21 12:16:49;;;;;;;40.08;31.80;;;32.10;67.90;;;;;;5034056;28;20504;-79
2022/06/21 12:19:40;;;;;;;11.25;7.85;;;32.40;68.00;;;;;;5034764;28;20405;-80
2022/06/21 12:22:37;;;;;;;11.20;6.65;;;32.40;69.30;;;;;;5019573;28;20067;-81
2022/06/21 12:25:23;;;;;;;9.15;6.63;;;32.60;68.00;;;;;;5019950;28;20385;-78
2022/06/21 12:28:18;;;;;;;11.32;6.85;;;32.70;68.20;;;;;;5020166;28;20049;-78
2022/06/21 12:31:36;;;;;;;11.77;8.25;;;32.70;67.70;;;;;;5033790;28;20056;-78
2022/06/21 12:34:46;;;;;;;11.60;6.63;;;32.40;69.10;;;;;;5034156;28;20056;-80
2022/06/21 12:37:43;;;;;;;12.00;7.22;;;32.60;68.00;;;;;;5033805;28;20096;-78
2022/06/21 12:40:39;;;;;;;13.80;5.90;;;32.70;66.80;;;;;;5034244;28;20056;-76
2022/06/21 12:43:35;;;;;;;10.00;6.00;;;32.80;67.90;;;;;;5033979;28;20504;-77
2022/06/21 12:47:17;;;;;;;11.13;6.43;;;32.80;67.90;;;;;;5033838;28;20044;-79
2022/06/21 12:50:15;;;;;;;10.77;5.63;;;32.80;68.40;;;;;;5025687;28;20472;-77
2022/06/21 12:53:28;;;;;;;10.45;6.38;;;32.90;67.70;;;;;;5033211;28;20060;-79
2022/06/21 12:56:47;;;;;;;9.65;6.45;;;32.90;67.30;;;;;;5019133;28;20044;-78
2022/06/21 12:59:48;;;;;;;11.43;6.13;;;32.90;67.00;;;;;;5033225;28;20131;-78
2022/06/21 13:03:17;;;;;;;11.98;7.05;;;32.90;66.90;;;;;;5033667;28;20067;-78
2022/06/21 13:06:31;;;;;;;32.90;26.52;;;32.80;67.30;;;;;;5033038;28;20504;-76
2022/06/21 13:09:31;;;;;;;21.92;13.93;;;33.00;67.60;;;;;;5033174;28;20060;-77
2022/06/21 13:12:35;;;;;;;12.48;7.07;;;32.80;67.90;;;;;;5033241;28;20060;-82
2022/06/21 13:15:30;;;;;;;20.52;8.65;;;33.00;66.80;;;;;;5032889;28;20126;-79
2022/06/21 13:18:24;;;;;;;45.05;34.75;;;33.00;66.90;;;;;;5033187;28;20043;-79
2022/06/21 13:21:33;;;;;;;26.20;18.00;;;33.00;67.20;;;;;;5037751;28;20396;-78
2022/06/21 13:24:53;;;;;;;9.98;7.70;;;32.90;67.20;;;;;;5038126;28;20040;-81
2022/06/21 13:27:47;;;;;;;12.68;7.10;;;33.00;66.40;;;;;;5035497;28;20061;-77
2022/06/21 13:30:43;;;;;;;12.52;9.38;;;33.20;65.70;;;;;;5018352;28;20037;-75
2022/06/21 13:33:34;;;;;;;19.45;7.95;;;32.70;66.70;;;;;;5017831;28;20806;-77
2022/06/21 13:36:28;;;;;;;15.55;9.23;;;32.70;68.20;;;;;;5032039;28;20053;-76
2022/06/21 13:39:24;;;;;;;18.83;9.40;;;32.20;69.50;;;;;;5016601;28;20056;-75
2022/06/21 13:42:38;;;;;;;19.00;7.65;;;32.00;69.20;;;;;;5015661;28;20057;-77
2022/06/21 13:45:56;;;;;;;16.40;7.07;;;32.40;68.30;;;;;;5016204;28;20110;-75
2022/06/21 13:49:06;;;;;;;112.38;85.68;;;32.70;68.50;;;;;;5011294;28;20072;-76
2022/06/21 13:52:05;;;;;;;36.28;31.13;;;32.90;67.40;;;;;;4983250;28;20048;-75
2022/06/21 13:55:11;;;;;;;60.47;47.65;;;32.90;66.50;;;;;;4998276;28;20593;-75
2022/06/21 13:58:22;;;;;;;177.38;141.52;;;32.70;65.80;;;;;;4996365;28;20157;-74
2022/06/21 14:01:22;;;;;;;29.20;21.25;;;32.70;66.30;;;;;;5009524;28;20706;-75
2022/06/21 14:04:27;;;;;;;15.15;9.27;;;32.90;66.20;;;;;;4995102;28;20410;-76
2022/06/21 14:07:30;;;;;;;14.35;8.52;;;32.90;66.70;;;;;;5000515;28;20103;-77
2022/06/21 14:10:21;;;;;;;24.17;16.48;;;32.70;66.40;;;;;;5014146;28;20504;-78
2022/06/21 14:13:19;;;;;;;13.60;8.23;;;31.90;68.40;;;;;;5016411;28;20385;-78
2022/06/21 14:16:22;;;;;;;13.68;8.15;;;32.30;67.50;;;;;;5017471;28;20055;-77
2022/06/21 14:19:27;;;;;;;18.70;10.48;;;32.30;67.60;;;;;;5017424;28;20119;-78
2022/06/21 14:22:21;;;;;;;18.38;8.98;;;32.10;68.40;;;;;;5032123;28;20061;-78
2022/06/21 14:25:20;;;;;;;23.50;10.18;;;32.30;67.90;;;;;;5017423;28;20471;-80
2022/06/21 14:28:36;;;;;;;17.05;9.25;;;32.10;68.70;;;;;;5017706;28;20045;-81
2022/06/21 14:31:27;;;;;;;54.70;42.65;;;32.30;68.90;;;;;;5017575;28;20166;-78
2022/06/21 14:34:50;;;;;;;46.67;35.88;;;31.90;69.00;;;;;;5016502;28;20053;-81
2022/06/21 14:37:54;;;;;;;25.20;18.08;;;32.00;68.70;;;;;;5031890;28;20060;-78
2022/06/21 14:40:51;;;;;;;29.77;14.97;;;32.40;68.20;;;;;;5017294;28;20060;-78
2022/06/21 14:43:57;;;;;;;28.52;15.25;;;32.20;68.10;;;;;;5017121;28;20092;-75
2022/06/21 14:46:49;;;;;;;26.00;13.20;;;32.10;68.60;;;;;;4997733;28;20048;-79
2022/06/21 14:49:44;;;;;;;20.85;10.07;;;32.20;68.70;;;;;;4997005;28;20051;-79
2022/06/21 14:52:32;;;;;;;19.23;7.28;;;31.90;69.30;;;;;;4997056;28;20123;-75
2022/06/21 14:55:40;;;;;;;129.15;98.80;;;31.90;67.90;;;;;;5013133;28;20139;-78
2022/06/21 14:59:12;;;;;;;26.35;17.63;;;31.80;68.30;;;;;;5014819;28;20056;-76
2022/06/21 15:03:01;;;;;;;17.77;10.45;;;31.90;67.30;;;;;;5007198;28;20049;-78
2022/06/21 15:06:24;;;;;;;9.88;6.40;;;32.00;67.60;;;;;;4998167;28;20516;-80
2022/06/21 15:09:26;;;;;;;11.63;6.47;;;32.00;66.50;;;;;;4997365;28;20087;-85
2022/06/21 15:12:19;;;;;;;8.55;5.70;;;31.70;67.20;;;;;;5011375;28;20044;-80
2022/06/21 15:15:13;;;;;;;10.13;5.60;;;32.00;66.80;;;;;;5012314;28;20401;-77
2022/06/21 15:18:11;;;;;;;17.58;5.82;;;32.00;66.90;;;;;;5039801;28;20047;-83
2022/06/21 15:21:19;;;;;;;176.60;130.10;;;31.80;67.20;;;;;;5033712;28;20047;-88
2022/06/21 15:24:10;;;;;;;21.60;17.20;;;31.90;67.30;;;;;;5037304;28;20048;-80
2022/06/21 15:27:06;;;;;;;38.95;29.60;;;31.70;67.40;;;;;;5051397;28;20180;-78
2022/06/21 15:29:55;;;;;;;17.85;15.30;;;31.70;67.70;;;;;;5051371;28;20064;-79
2022/06/21 15:32:53;;;;;;;35.95;27.10;;;32.00;67.90;;;;;;5051628;28;20041;-79
2022/06/21 15:36:05;;;;;;;387.73;325.40;;;31.90;67.10;;;;;;5036717;28;20056;-78